createdAt,value
2022-09-12T00:02:25.235Z,17.98
2022-09-12T00:04:52.889Z,18.09
2022-09-12T00:07:20.595Z,18.07
2022-09-12T00:09:48.353Z,18.03
2022-09-12T00:12:15.923Z,18.02
2022-09-12T00:14:44.989Z,18.01
2022-09-12T00:17:12.866Z,17.98
2022-09-12T00:19:40.517Z,18.00
2022-09-12T00:22:08.148Z,18.00
2022-09-12T00:24:35.746Z,17.99
2022-09-12T00:27:03.423Z,17.96
2022-09-12T00:29:31.274Z,17.75
2022-09-12T00:32:00.418Z,17.87
2022-09-12T00:34:28.025Z,17.85
2022-09-12T00:36:55.711Z,17.13
2022-09-12T00:39:23.401Z,17.80
2022-09-12T00:41:51.197Z,17.78
2022-09-12T00:44:44.805Z,17.79
2022-09-12T00:47:15.644Z,17.65
2022-09-12T00:49:45.070Z,17.64
2022-09-12T00:52:13.633Z,17.63
2022-09-12T00:54:44.549Z,17.60
2022-09-12T00:57:12.235Z,17.56
2022-09-12T00:59:40.986Z,17.60
2022-09-12T01:02:08.893Z,17.49
2022-09-12T01:04:38.116Z,17.55
2022-09-12T01:07:06.056Z,17.32
2022-09-12T01:09:33.672Z,17.56
2022-09-12T01:17:13.072Z,17.51
2022-09-12T01:19:58.737Z,17.45
2022-09-12T01:22:39.169Z,17.42
2022-09-12T01:25:12.509Z,17.44
2022-09-12T01:27:48.152Z,17.45
2022-09-12T01:30:25.999Z,17.44
2022-09-12T01:33:14.768Z,17.31
2022-09-12T01:35:46.888Z,17.37
2022-09-12T01:38:19.771Z,17.34
2022-09-12T01:40:49.752Z,17.31
2022-09-12T01:43:21.129Z,17.29
2022-09-12T01:45:54.289Z,17.29
2022-09-12T01:48:23.478Z,17.29
2022-09-12T01:50:52.645Z,17.19
2022-09-12T01:53:22.020Z,17.11
2022-09-12T01:55:51.330Z,17.22
2022-09-12T01:58:20.453Z,17.01
2022-09-12T02:00:55.726Z,16.79
2022-09-12T02:03:25.272Z,17.16
2022-09-12T02:05:54.682Z,17.05
2022-09-12T02:08:24.627Z,15.19
2022-09-12T02:10:54.593Z,16.66
2022-09-12T02:13:24.019Z,17.05
2022-09-12T02:15:54.861Z,16.27
2022-09-12T02:18:22.456Z,16.50
2022-09-12T02:20:50.499Z,17.02
2022-09-12T02:23:21.714Z,16.64
2022-09-12T02:25:50.390Z,16.85
2022-09-12T02:28:19.490Z,16.93
2022-09-12T02:30:51.673Z,16.51
2022-09-12T02:33:26.604Z,16.12
2022-09-12T02:35:55.159Z,16.97
2022-09-12T02:38:26.411Z,16.94
2022-09-12T02:40:54.069Z,16.94
2022-09-12T02:43:21.729Z,16.36
2022-09-12T02:45:49.447Z,16.63
2022-09-12T02:48:19.287Z,16.51
2022-09-12T02:50:48.296Z,16.71
2022-09-12T02:53:15.970Z,16.53
2022-09-12T02:55:43.635Z,16.72
2022-09-12T02:58:12.315Z,16.77
2022-09-12T03:00:49.106Z,16.49
2022-09-12T03:03:26.240Z,16.73
2022-09-12T03:05:56.940Z,16.60
2022-09-12T03:09:00.312Z,16.71
2022-09-12T03:11:40.928Z,16.61
2022-09-12T03:14:13.878Z,16.22
2022-09-12T03:16:43.406Z,16.54
2022-09-12T03:19:17.415Z,16.52
2022-09-12T03:21:51.235Z,16.51
2022-09-12T03:24:19.636Z,16.50
2022-09-12T03:26:48.996Z,16.45
2022-09-12T03:29:16.906Z,16.45
2022-09-12T03:31:50.257Z,16.18
2022-09-12T03:34:18.374Z,16.42
2022-09-12T03:36:47.452Z,16.30
2022-09-12T03:39:15.091Z,16.38
2022-09-12T03:41:42.915Z,16.27
2022-09-12T03:44:10.744Z,16.21
2022-09-12T03:46:38.509Z,16.21
2022-09-12T03:49:06.085Z,16.37
2022-09-12T03:51:33.751Z,16.37
2022-09-12T03:54:03.013Z,16.36
2022-09-12T03:56:31.014Z,15.85
2022-09-12T03:58:58.727Z,16.36
2022-09-12T04:01:26.443Z,16.36
2022-09-12T04:03:54.167Z,16.37
2022-09-12T04:06:22.911Z,16.36
2022-09-12T04:08:51.512Z,16.37
2022-09-12T04:11:21.148Z,16.35
2022-09-12T04:13:48.908Z,16.34
2022-09-12T04:16:17.502Z,16.34
2022-09-12T04:18:45.325Z,15.90
2022-09-12T04:21:15.522Z,16.33
2022-09-12T04:23:43.236Z,16.20
2022-09-12T04:26:11.172Z,16.14
2022-09-12T04:28:40.197Z,16.08
2022-09-12T04:31:09.121Z,15.95
2022-09-12T04:33:36.852Z,16.01
2022-09-12T04:36:06.269Z,16.23
2022-09-12T04:38:34.163Z,16.24
2022-09-12T04:41:01.889Z,15.96
2022-09-12T04:43:29.573Z,16.24
2022-09-12T04:45:58.590Z,16.24
2022-09-12T04:48:26.945Z,16.24
2022-09-12T04:50:54.653Z,16.21
2022-09-12T04:53:22.280Z,16.24
2022-09-12T04:55:49.978Z,16.23
2022-09-12T04:58:17.574Z,16.24
2022-09-12T05:00:45.147Z,16.27
2022-09-12T05:03:14.215Z,16.24
2022-09-12T05:05:41.863Z,16.26
2022-09-12T05:08:09.498Z,16.27
2022-09-12T05:10:37.288Z,16.02
2022-09-12T05:13:04.937Z,16.28
2022-09-12T05:15:32.588Z,15.94
2022-09-12T05:18:00.411Z,16.31
2022-09-12T05:20:29.379Z,16.31
2022-09-12T05:22:57.145Z,15.49
2022-09-12T05:25:24.729Z,16.38
2022-09-12T05:27:53.478Z,16.34
2022-09-12T05:30:21.308Z,16.49
2022-09-12T05:32:49.630Z,16.26
2022-09-12T05:35:18.454Z,16.64
2022-09-12T05:37:47.480Z,16.71
2022-09-12T05:40:17.747Z,16.78
2022-09-12T05:42:45.420Z,16.59
2022-09-12T05:45:14.148Z,16.61
2022-09-12T05:47:41.935Z,16.76
2022-09-12T05:50:10.974Z,17.01
2022-09-12T05:52:38.700Z,16.89
2022-09-12T05:55:08.456Z,17.40
2022-09-12T05:57:36.335Z,17.27
2022-09-12T06:00:05.285Z,17.61
2022-09-12T06:02:32.977Z,17.74
2022-09-12T06:05:00.886Z,17.86
2022-09-12T06:07:29.619Z,18.00
2022-09-12T06:09:59.259Z,18.17
2022-09-12T06:12:29.944Z,18.46
2022-09-12T06:14:57.752Z,18.38
2022-09-12T06:17:25.626Z,19.35
2022-09-12T06:19:55.264Z,19.79
2022-09-12T06:22:22.925Z,20.25
2022-09-12T06:24:52.789Z,20.42
2022-09-12T06:27:23.719Z,21.09
2022-09-12T06:29:52.937Z,21.39
2022-09-12T06:32:20.657Z,21.68
2022-09-12T06:34:48.488Z,21.98
2022-09-12T06:37:16.366Z,21.38
2022-09-12T06:39:44.460Z,22.33
2022-09-12T06:42:24.850Z,22.22
2022-09-12T06:44:55.333Z,22.98
2022-09-12T06:47:23.520Z,23.40
2022-09-12T06:49:54.618Z,23.81
2022-09-12T06:52:22.530Z,23.85
2022-09-12T06:54:50.294Z,23.82
2022-09-12T06:57:18.230Z,23.87
2022-09-12T06:59:45.894Z,24.07
2022-09-12T07:02:15.497Z,24.59
2022-09-12T07:04:43.350Z,25.22
2022-09-12T07:07:11.294Z,25.56
2022-09-12T07:09:44.624Z,26.08
2022-09-12T07:15:03.611Z,24.20
2022-09-12T07:17:33.086Z,24.50
2022-09-12T07:20:00.902Z,26.51
2022-09-12T07:22:28.986Z,25.58
2022-09-12T07:24:58.081Z,26.06
2022-09-12T07:27:25.967Z,25.56
2022-09-12T07:29:54.004Z,25.77
2022-09-12T07:32:23.360Z,26.55
2022-09-12T07:34:52.532Z,25.70
2022-09-12T07:37:20.211Z,26.56
2022-09-12T07:39:48.120Z,25.47
2022-09-12T07:42:15.948Z,24.53
2022-09-12T07:44:44.458Z,25.27
2022-09-12T07:47:12.208Z,26.34
2022-09-12T07:49:40.543Z,24.34
2022-09-12T07:52:09.803Z,25.36
2022-09-12T07:54:37.527Z,25.43
2022-09-12T07:57:05.292Z,25.06
2022-09-12T07:59:51.374Z,25.05
2022-09-12T08:02:20.310Z,24.32
2022-09-12T08:04:48.520Z,25.35
2022-09-12T08:07:19.230Z,26.13
2022-09-12T08:09:47.336Z,26.10
2022-09-12T08:12:18.253Z,25.13
2022-09-12T08:14:45.920Z,24.92
2022-09-12T08:17:14.256Z,25.55
2022-09-12T08:19:41.964Z,25.81
2022-09-12T08:22:09.884Z,25.93
2022-09-12T08:24:40.247Z,26.64
2022-09-12T08:27:07.989Z,26.31
2022-09-12T08:29:35.782Z,25.81
2022-09-12T08:32:04.280Z,26.39
2022-09-12T08:34:32.425Z,28.13
2022-09-12T08:37:00.164Z,27.55
2022-09-12T08:39:28.034Z,28.08
2022-09-12T08:41:59.702Z,28.07
2022-09-12T08:44:45.792Z,28.87
2022-09-12T08:47:21.112Z,28.47
2022-09-12T08:49:57.270Z,29.51
2022-09-12T08:52:28.303Z,29.34
2022-09-12T08:54:56.441Z,29.14
2022-09-12T08:57:25.692Z,29.32
2022-09-12T08:59:54.156Z,29.44
2022-09-12T09:02:31.003Z,30.74
2022-09-12T09:05:00.515Z,31.34
2022-09-12T09:07:52.779Z,32.62
2022-09-12T09:10:24.123Z,32.02
2022-09-12T09:12:56.157Z,33.71
2022-09-12T09:15:32.130Z,34.10
2022-09-12T09:18:01.103Z,34.67
2022-09-12T09:20:31.600Z,35.10
2022-09-12T09:23:12.464Z,34.37
2022-09-12T09:25:44.610Z,34.54
2022-09-12T09:28:17.229Z,34.93
2022-09-12T09:30:46.022Z,35.40
2022-09-12T09:33:19.750Z,35.83
2022-09-12T09:35:49.091Z,33.52
2022-09-12T09:38:25.852Z,35.91
2022-09-12T09:41:03.546Z,35.37
2022-09-12T09:43:32.983Z,36.68
2022-09-12T09:55:25.785Z,39.93
2022-09-12T09:57:53.623Z,39.99
2022-09-12T10:00:31.654Z,40.27
2022-09-12T10:03:04.648Z,40.71
2022-09-12T10:05:34.564Z,40.85
2022-09-12T10:08:02.337Z,41.35
2022-09-12T10:10:30.153Z,42.01
2022-09-12T10:13:09.089Z,42.82
2022-09-12T10:15:38.762Z,43.70
2022-09-12T10:18:06.940Z,44.18
2022-09-12T10:20:36.063Z,44.17
2022-09-12T10:23:16.561Z,45.04
2022-09-12T10:25:47.195Z,45.86
2022-09-12T10:28:21.945Z,46.62
2022-09-12T10:30:54.850Z,47.15
2022-09-12T10:33:22.733Z,47.56
2022-09-12T10:35:50.465Z,47.89
2022-09-12T10:38:21.598Z,47.93
2022-09-12T10:40:57.037Z,48.27
2022-09-12T10:43:28.056Z,48.61
2022-09-12T10:45:59.800Z,48.34
2022-09-12T10:48:30.363Z,48.30
2022-09-12T10:50:58.182Z,48.78
2022-09-12T10:53:29.916Z,49.11
2022-09-12T10:56:05.349Z,49.41
2022-09-12T10:58:59.388Z,49.73
2022-09-12T11:01:38.176Z,49.53
2022-09-12T11:04:16.733Z,49.06
2022-09-12T11:06:48.153Z,48.81
2022-09-12T11:09:18.322Z,49.01
2022-09-12T11:11:56.788Z,49.11
2022-09-12T11:14:46.158Z,49.36
2022-09-12T11:17:22.250Z,49.19
2022-09-12T11:20:01.701Z,49.29
2022-09-12T11:22:36.740Z,49.61
2022-09-12T11:25:22.231Z,49.85
2022-09-12T11:28:02.770Z,50.10
2022-09-12T11:30:31.487Z,50.23
2022-09-12T11:33:09.127Z,49.96
2022-09-12T11:35:39.080Z,50.09
2022-09-12T11:38:27.924Z,50.63
2022-09-12T11:40:56.608Z,51.01
2022-09-12T11:43:32.982Z,50.81
2022-09-12T11:46:02.230Z,50.12
2022-09-12T11:48:38.482Z,49.68
2022-09-12T11:51:07.768Z,49.38
2022-09-12T11:53:37.493Z,48.41
2022-09-12T11:56:07.228Z,47.21
2022-09-12T11:58:39.643Z,46.22
2022-09-12T12:01:12.627Z,44.98
2022-09-12T12:03:43.542Z,43.44
2022-09-12T12:06:13.168Z,42.14
2022-09-12T12:08:42.629Z,40.68
2022-09-12T12:11:10.925Z,39.12
2022-09-12T12:13:40.284Z,38.13
2022-09-12T12:16:09.061Z,37.25
2022-09-12T12:18:38.138Z,36.47
2022-09-12T12:21:27.763Z,35.55
2022-09-12T12:24:19.818Z,34.46
2022-09-12T12:27:01.163Z,33.99
2022-09-12T12:29:41.572Z,33.48
2022-09-12T12:32:24.686Z,33.05
2022-09-12T12:34:52.365Z,32.75
2022-09-12T12:37:51.947Z,32.29
2022-09-12T12:40:29.312Z,31.94
2022-09-12T12:43:05.072Z,31.99
2022-09-12T12:46:12.592Z,31.97
2022-09-12T12:49:04.894Z,31.34
2022-09-12T12:52:02.268Z,31.73
2022-09-12T12:54:53.609Z,31.50
2022-09-12T12:57:39.377Z,31.43
2022-09-12T13:00:09.851Z,31.18
2022-09-12T13:02:39.475Z,31.28
2022-09-12T13:05:08.556Z,31.15
2022-09-12T13:07:37.440Z,31.20
2022-09-12T13:10:05.872Z,31.10
2022-09-12T13:12:35.554Z,30.83
2022-09-12T13:15:03.421Z,30.86
2022-09-12T13:17:34.088Z,30.73
2022-09-12T13:20:30.888Z,30.64
2022-09-12T13:23:00.192Z,30.60
2022-09-12T13:25:30.139Z,30.53
2022-09-12T13:28:00.555Z,30.14
2022-09-12T13:30:28.430Z,30.48
2022-09-12T13:32:58.099Z,30.40
2022-09-12T13:35:30.950Z,30.44
2022-09-12T13:37:59.268Z,30.39
2022-09-12T13:40:31.905Z,30.45
2022-09-12T13:43:15.009Z,30.40
2022-09-12T13:45:42.953Z,30.45
2022-09-12T13:48:15.119Z,30.39
2022-09-12T13:50:43.908Z,30.06
2022-09-12T13:53:14.924Z,29.99
2022-09-12T13:55:43.763Z,30.11
2022-09-12T13:58:20.862Z,30.35
2022-09-12T14:00:48.552Z,30.40
2022-09-12T14:03:44.870Z,30.42
2022-09-12T14:06:12.877Z,30.37
2022-09-12T14:08:41.602Z,30.02
2022-09-12T14:11:09.748Z,30.16
2022-09-12T14:13:39.718Z,30.41
2022-09-12T14:16:09.755Z,30.51
2022-09-12T14:18:38.322Z,30.31
2022-09-12T14:21:10.574Z,30.63
2022-09-12T14:23:39.370Z,30.55
2022-09-12T14:26:08.173Z,30.59
2022-09-12T14:28:36.167Z,30.64
2022-09-12T14:31:07.654Z,30.51
2022-09-12T14:33:41.384Z,30.59
2022-09-12T14:36:11.995Z,30.61
2022-09-12T14:38:42.656Z,30.55
2022-09-12T14:41:11.266Z,30.58
2022-09-12T14:43:40.063Z,30.55
2022-09-12T14:46:17.331Z,30.32
2022-09-12T14:48:48.185Z,30.42
2022-09-12T14:51:19.665Z,30.42
2022-09-12T14:53:48.867Z,30.31
2022-09-12T14:56:16.603Z,30.29
2022-09-12T14:58:44.477Z,30.28
2022-09-12T15:01:27.621Z,30.28
2022-09-12T15:03:56.658Z,30.12
2022-09-12T15:06:28.172Z,30.13
2022-09-12T15:08:56.309Z,30.29
2022-09-12T15:11:24.199Z,30.29
2022-09-12T15:13:53.062Z,30.25
2022-09-12T15:16:20.808Z,30.19
2022-09-12T15:18:49.963Z,30.14
2022-09-12T15:21:18.515Z,30.11
2022-09-12T15:23:47.303Z,30.10
2022-09-12T15:26:16.739Z,30.13
2022-09-12T15:28:44.441Z,30.05
2022-09-12T15:31:14.531Z,29.93
2022-09-12T15:33:42.346Z,29.93
2022-09-12T15:36:15.304Z,29.91
2022-09-12T15:38:43.223Z,29.89
2022-09-12T15:41:12.768Z,29.83
2022-09-12T15:43:40.494Z,29.76
2022-09-12T15:46:10.024Z,29.71
2022-09-12T15:48:37.998Z,29.70
2022-09-12T15:51:06.067Z,29.67
2022-09-12T15:53:35.100Z,29.63
2022-09-12T15:56:03.561Z,29.48
2022-09-12T15:58:31.277Z,29.55
2022-09-12T16:00:59.147Z,29.45
2022-09-12T16:03:37.987Z,29.21
2022-09-12T16:06:14.067Z,29.25
2022-09-12T16:08:43.764Z,29.39
2022-09-12T16:11:13.174Z,29.32
2022-09-12T16:13:40.948Z,29.21
2022-09-12T16:16:10.008Z,29.23
2022-09-12T16:18:38.872Z,29.18
2022-09-12T16:21:11.293Z,28.95
2022-09-12T16:23:44.696Z,29.06
2022-09-12T16:26:12.423Z,29.05
2022-09-12T16:28:40.239Z,29.01
2022-09-12T16:31:09.171Z,28.94
2022-09-12T16:33:37.966Z,28.86
2022-09-12T16:36:06.838Z,28.78
2022-09-12T16:38:35.893Z,28.79
2022-09-12T16:41:05.716Z,28.72
2022-09-12T16:43:33.721Z,28.60
2022-09-12T16:46:03.061Z,28.65
2022-09-12T16:48:30.946Z,28.61
2022-09-12T16:50:58.853Z,28.56
2022-09-12T16:53:26.602Z,28.52
2022-09-12T16:55:54.263Z,28.45
2022-09-12T16:58:23.462Z,28.46
2022-09-12T17:00:51.125Z,28.38
2022-09-12T17:03:18.878Z,28.12
2022-09-12T17:05:46.613Z,28.32
2022-09-12T17:08:15.396Z,28.31
2022-09-12T17:10:42.975Z,28.32
2022-09-12T17:13:10.689Z,28.28
2022-09-12T17:15:39.788Z,28.24
2022-09-12T17:18:07.761Z,28.20
2022-09-12T17:20:36.496Z,28.14
2022-09-12T17:23:07.744Z,27.88
2022-09-12T17:25:37.461Z,27.99
2022-09-12T17:28:06.309Z,27.83
2022-09-12T17:30:35.155Z,27.58
2022-09-12T17:33:04.579Z,27.75
2022-09-12T17:35:35.232Z,27.67
2022-09-12T17:38:03.016Z,27.32
2022-09-12T17:40:55.658Z,27.21
2022-09-12T17:43:20.315Z,27.10
2022-09-12T17:45:52.034Z,26.99
2022-09-12T17:48:21.798Z,27.12
2022-09-12T17:50:50.590Z,27.01
2022-09-12T17:53:18.275Z,26.88
2022-09-12T17:55:46.037Z,26.80
2022-09-12T17:58:14.043Z,26.72
2022-09-12T18:00:55.766Z,26.46
2022-09-12T18:03:25.175Z,26.19
2022-09-12T18:05:53.867Z,26.39
2022-09-12T18:08:21.720Z,26.11
2022-09-12T18:10:49.887Z,25.92
2022-09-12T18:13:17.738Z,26.13
2022-09-12T18:15:45.663Z,25.59
2022-09-12T18:18:13.539Z,25.91
2022-09-12T18:20:51.065Z,25.81
2022-09-12T18:23:20.041Z,25.71
2022-09-12T18:25:48.645Z,25.63
2022-09-12T18:28:16.395Z,25.55
2022-09-12T18:30:44.095Z,24.96
2022-09-12T18:33:11.785Z,25.40
2022-09-12T18:35:39.682Z,24.94
2022-09-12T18:38:08.827Z,25.24
2022-09-12T18:40:36.905Z,25.23
2022-09-12T18:43:04.629Z,25.19
2022-09-12T18:45:32.363Z,25.19
2022-09-12T18:48:00.327Z,25.14
2022-09-12T18:50:28.179Z,24.52
2022-09-12T18:52:59.642Z,24.89
2022-09-12T18:55:31.889Z,25.06
2022-09-12T18:57:59.616Z,24.76
2022-09-12T19:00:28.183Z,24.91
2022-09-12T19:02:56.296Z,24.85
2022-09-12T19:05:23.945Z,24.85
2022-09-12T19:07:51.654Z,24.80
2022-09-12T19:10:19.626Z,24.79
2022-09-12T19:12:48.708Z,24.85
2022-09-12T19:17:50.773Z,24.81
2022-09-12T19:20:18.604Z,24.86
2022-09-12T19:22:46.458Z,24.87
2022-09-12T19:25:14.176Z,24.87
2022-09-12T19:27:41.783Z,24.87
2022-09-12T19:30:12.508Z,24.85
2022-09-12T19:32:40.161Z,24.87
2022-09-12T19:35:08.514Z,24.68
2022-09-12T19:37:36.140Z,24.44
2022-09-12T19:40:04.818Z,24.86
2022-09-12T19:42:32.469Z,24.82
2022-09-12T19:45:00.161Z,24.85
2022-09-12T19:47:29.338Z,24.49
2022-09-12T19:49:57.227Z,24.85
2022-09-12T19:52:24.921Z,24.87
2022-09-12T19:54:52.695Z,24.87
2022-09-12T19:57:20.389Z,24.82
2022-09-12T19:59:48.087Z,24.86
2022-09-12T20:02:16.035Z,24.84
2022-09-12T20:04:45.391Z,24.77
2022-09-12T20:07:13.085Z,24.83
2022-09-12T20:09:40.849Z,24.81
2022-09-12T20:12:08.830Z,24.67
2022-09-12T20:14:36.655Z,24.79
2022-09-12T20:17:04.291Z,24.59
2022-09-12T20:19:32.272Z,24.71
2022-09-12T20:22:01.378Z,24.79
2022-09-12T20:24:29.690Z,24.77
2022-09-12T20:26:57.632Z,24.76
2022-09-12T20:29:25.461Z,24.44
2022-09-12T20:31:53.269Z,24.76
2022-09-12T20:34:21.604Z,24.47
2022-09-12T20:36:49.687Z,24.62
2022-09-12T20:39:19.961Z,24.59
2022-09-12T20:41:47.646Z,24.77
2022-09-12T20:44:15.306Z,24.73
2022-09-12T20:46:43.178Z,24.67
2022-09-12T20:49:10.809Z,24.72
2022-09-12T20:51:38.478Z,24.52
2022-09-12T20:54:06.734Z,24.45
2022-09-12T20:56:36.361Z,24.72
2022-09-12T20:59:04.335Z,24.73
2022-09-12T21:01:32.345Z,24.74
2022-09-12T21:04:00.288Z,24.76
2022-09-12T21:06:28.153Z,24.17
2022-09-12T21:08:58.261Z,24.73
2022-09-12T21:11:25.927Z,24.69
2022-09-12T21:13:54.963Z,24.64
2022-09-12T21:16:23.596Z,24.67
2022-09-12T21:18:54.178Z,24.64
2022-09-12T21:21:21.938Z,24.62
2022-09-12T21:23:52.698Z,24.58
2022-09-12T21:26:20.403Z,24.58
2022-09-12T21:28:48.992Z,24.44
2022-09-12T21:31:18.567Z,24.48
2022-09-12T21:33:46.328Z,24.13
2022-09-12T21:36:14.272Z,24.46
2022-09-12T21:38:41.892Z,24.40
2022-09-12T21:41:11.297Z,24.39
2022-09-12T21:43:39.141Z,24.18
2022-09-12T21:46:07.405Z,24.18
2022-09-12T21:48:40.435Z,24.31
2022-09-12T21:51:08.109Z,24.07
2022-09-12T21:53:36.372Z,24.28
2022-09-12T21:56:04.939Z,24.30
2022-09-12T21:58:32.842Z,24.28
2022-09-12T22:01:00.990Z,24.15
2022-09-12T22:03:28.888Z,24.21
2022-09-12T22:06:01.482Z,24.14
2022-09-12T22:08:29.588Z,23.88
2022-09-12T22:10:59.411Z,24.03
2022-09-12T22:13:27.189Z,24.04
2022-09-12T22:15:54.951Z,24.03
2022-09-12T22:18:22.637Z,24.03
2022-09-12T22:20:50.322Z,23.99
2022-09-12T22:23:36.572Z,24.00
2022-09-12T22:26:04.282Z,23.93
2022-09-12T22:28:32.189Z,23.98
2022-09-12T22:30:59.874Z,23.96
2022-09-12T22:33:27.588Z,23.96
2022-09-12T22:35:55.511Z,23.96
2022-09-12T22:38:24.734Z,23.91
2022-09-12T22:40:52.387Z,23.82
2022-09-12T22:43:20.043Z,23.95
2022-09-12T22:45:47.650Z,23.93
2022-09-12T22:48:16.989Z,23.91
2022-09-12T22:50:45.092Z,23.91
2022-09-12T22:53:12.729Z,23.89
2022-09-12T22:55:43.671Z,23.87
2022-09-12T22:58:11.536Z,23.70
2022-09-12T23:00:39.190Z,23.82
2022-09-12T23:03:06.919Z,23.78
2022-09-12T23:05:34.537Z,23.75
2022-09-12T23:08:03.825Z,23.72
2022-09-12T23:10:32.169Z,23.70
2022-09-12T23:13:01.264Z,23.65
2022-09-12T23:15:29.237Z,23.63
2022-09-12T23:17:56.960Z,23.66
2022-09-12T23:20:24.562Z,23.65
2022-09-12T23:22:52.266Z,23.66
2022-09-12T23:25:23.199Z,23.62
2022-09-12T23:27:50.903Z,23.62
2022-09-12T23:30:21.364Z,23.58
2022-09-12T23:32:50.059Z,23.22
2022-09-12T23:35:19.442Z,23.59
2022-09-12T23:37:47.305Z,23.51
2022-09-12T23:40:14.948Z,23.56
2022-09-12T23:42:42.769Z,23.55
2022-09-12T23:45:11.241Z,23.54
2022-09-12T23:47:40.367Z,23.55
2022-09-12T23:50:08.536Z,23.51
2022-09-12T23:52:36.208Z,23.49
2022-09-12T23:55:03.857Z,23.50
2022-09-12T23:57:32.542Z,23.48
